Time;durP1;ratioP1;P1;durP2;ratioP2;P2;SDS_P1;SDS_P2;PMS_P1;PMS_P2;Temp;Humidity;BMP_temperature;BMP_pressure;BME280_temperature;BME280_humidity;BME280_pressure;Samples;Min_cycle;Max_cycle;Signal;HPM_P1;HPM_P2
2022/05/13 00:00:10;;;;;;;8.70;4.50;;;20.40;99.90;;;;;;5032925;28;20306;-58
2022/05/13 00:02:36;;;;;;;8.45;4.07;;;20.40;99.90;;;;;;5032603;28;20210;-58
2022/05/13 00:05:04;;;;;;;4.57;4.18;;;20.40;99.90;;;;;;5032659;28;20229;-58
2022/05/13 00:07:31;;;;;;;5.88;4.03;;;20.50;99.90;;;;;;5032467;28;20242;-58
2022/05/13 00:10:00;;;;;;;7.97;4.32;;;20.50;99.90;;;;;;5032805;28;20207;-58
2022/05/13 00:12:29;;;;;;;4.63;4.20;;;20.50;99.90;;;;;;5032399;28;20217;-57
2022/05/13 00:14:57;;;;;;;6.85;4.35;;;20.50;99.90;;;;;;5032495;28;20214;-58
2022/05/13 00:17:25;;;;;;;6.35;3.50;;;20.50;99.90;;;;;;5032274;28;20276;-59
2022/05/13 00:19:52;;;;;;;6.85;3.95;;;20.40;99.90;;;;;;5032358;28;20681;-58
2022/05/13 00:22:19;;;;;;;5.07;3.75;;;20.40;99.90;;;;;;5032316;28;20280;-58
2022/05/13 00:24:47;;;;;;;4.95;3.70;;;20.40;99.90;;;;;;5032412;28;20284;-57
2022/05/13 00:27:14;;;;;;;7.13;3.45;;;20.30;99.90;;;;;;5032239;28;20226;-57
2022/05/13 00:29:41;;;;;;;5.20;3.47;;;20.20;99.90;;;;;;5032333;28;20202;-58
2022/05/13 00:32:08;;;;;;;4.78;3.53;;;20.30;99.90;;;;;;5031868;28;20236;-57
2022/05/13 00:34:36;;;;;;;4.95;3.60;;;20.30;99.90;;;;;;5032393;28;20202;-57
2022/05/13 00:37:03;;;;;;;5.95;3.90;;;20.30;99.90;;;;;;5032028;28;20744;-57
2022/05/13 00:39:30;;;;;;;4.85;3.55;;;20.40;99.90;;;;;;5032239;28;20210;-57
2022/05/13 00:42:06;;;;;;;5.85;3.95;;;20.40;99.90;;;;;;5031918;28;20206;-58
2022/05/13 00:44:32;;;;;;;4.05;3.45;;;20.40;99.90;;;;;;5031900;28;20309;-57
2022/05/13 00:46:59;;;;;;;4.93;3.88;;;20.40;99.90;;;;;;5032189;28;20234;-58
2022/05/13 00:49:26;;;;;;;5.72;3.65;;;20.40;99.90;;;;;;5032219;28;20260;-57
2022/05/13 00:51:54;;;;;;;9.98;3.65;;;20.30;99.90;;;;;;5031888;28;20210;-59
2022/05/13 00:54:21;;;;;;;6.43;3.63;;;20.40;99.90;;;;;;5031972;28;20319;-58
2022/05/13 00:56:49;;;;;;;7.32;4.05;;;20.40;99.90;;;;;;5031849;28;20654;-57
2022/05/13 00:59:18;;;;;;;10.43;3.67;;;20.30;99.90;;;;;;5031312;28;20583;-57
2022/05/13 01:01:45;;;;;;;5.82;3.60;;;20.40;99.90;;;;;;5031833;28;20297;-57
2022/05/13 01:04:15;;;;;;;4.03;3.17;;;20.40;99.90;;;;;;5031976;28;20222;-56
2022/05/13 01:06:46;;;;;;;6.25;4.05;;;20.40;99.90;;;;;;5031649;28;20315;-57
2022/05/13 01:09:14;;;;;;;5.25;3.70;;;20.40;99.90;;;;;;5031844;28;20210;-57
2022/05/13 01:11:43;;;;;;;5.13;3.30;;;20.40;99.90;;;;;;5031439;28;20202;-58
2022/05/13 01:14:15;;;;;;;3.95;3.25;;;20.40;99.90;;;;;;5031959;28;20230;-58
2022/05/13 01:19:26;;;;;;;6.88;3.55;;;20.40;99.90;;;;;;5031789;28;20288;-57
2022/05/13 01:21:54;;;;;;;3.60;3.22;;;20.40;99.90;;;;;;5031295;28;20674;-57
2022/05/13 01:24:22;;;;;;;4.53;3.67;;;20.50;99.90;;;;;;5031544;28;20222;-58
2022/05/13 01:26:49;;;;;;;4.45;3.70;;;20.50;99.90;;;;;;5031589;28;20737;-57
2022/05/13 01:29:16;;;;;;;5.93;3.80;;;20.40;99.90;;;;;;5031492;28;20619;-58
2022/05/13 01:31:43;;;;;;;6.93;4.72;;;20.40;99.90;;;;;;5031291;28;20264;-57
2022/05/13 01:34:12;;;;;;;6.43;4.18;;;20.40;99.90;;;;;;5031599;28;20202;-57
2022/05/13 01:36:41;;;;;;;4.63;3.53;;;20.40;99.90;;;;;;5031572;28;20218;-57
2022/05/13 01:39:09;;;;;;;7.70;4.00;;;20.40;99.90;;;;;;5031901;28;20263;-59
2022/05/13 01:41:36;;;;;;;4.63;3.67;;;20.30;99.90;;;;;;5031638;28;20214;-57
2022/05/13 01:44:03;;;;;;;5.68;3.60;;;20.20;99.90;;;;;;5031714;28;20226;-57
2022/05/13 01:46:30;;;;;;;5.85;3.13;;;20.20;99.90;;;;;;5031481;28;20288;-59
2022/05/13 01:48:57;;;;;;;3.83;3.40;;;20.10;99.90;;;;;;5031401;28;20219;-58
2022/05/13 01:51:25;;;;;;;6.68;3.40;;;20.00;99.90;;;;;;5031051;28;20685;-58
2022/05/13 01:53:53;;;;;;;8.07;3.90;;;19.90;99.90;;;;;;5031580;28;20257;-59
2022/05/13 01:56:21;;;;;;;6.65;3.67;;;19.90;99.90;;;;;;5031504;28;20222;-57
2022/05/13 01:58:47;;;;;;;13.05;5.65;;;19.90;99.90;;;;;;5031358;28;20256;-57
2022/05/13 02:01:14;;;;;;;12.73;5.10;;;19.90;99.90;;;;;;5031081;28;20206;-58
2022/05/13 02:03:47;;;;;;;7.10;3.70;;;19.80;99.90;;;;;;5031136;28;20210;-57
2022/05/13 02:06:15;;;;;;;7.78;3.78;;;19.70;99.90;;;;;;5031226;28;20234;-57
2022/05/13 02:08:42;;;;;;;5.38;3.00;;;19.60;99.90;;;;;;5031235;28;20210;-57
2022/05/13 02:11:10;;;;;;;7.35;3.50;;;19.50;99.90;;;;;;5032157;28;20272;-57
2022/05/13 02:13:39;;;;;;;5.53;3.53;;;19.50;99.90;;;;;;5034844;28;20206;-58
2022/05/13 02:16:06;;;;;;;8.48;4.20;;;19.40;99.90;;;;;;5034709;28;20280;-58
2022/05/13 02:18:33;;;;;;;6.30;3.53;;;19.40;99.90;;;;;;5034636;28;20264;-58
2022/05/13 02:21:00;;;;;;;7.88;3.47;;;19.30;99.90;;;;;;5034754;28;20210;-58
2022/05/13 02:23:26;;;;;;;5.60;3.90;;;19.30;99.90;;;;;;5034785;28;20206;-58
2022/05/13 02:25:59;;;;;;;5.53;3.72;;;19.20;99.90;;;;;;5034932;28;20233;-58
2022/05/13 02:28:26;;;;;;;6.55;3.60;;;19.20;99.90;;;;;;5034739;28;20210;-57
2022/05/13 02:30:54;;;;;;;8.60;3.58;;;19.20;99.90;;;;;;5034295;28;20206;-59
2022/05/13 02:33:21;;;;;;;6.25;3.90;;;19.10;99.90;;;;;;5034770;28;20210;-59
2022/05/13 02:35:48;;;;;;;4.85;3.70;;;19.10;99.90;;;;;;5034606;28;20238;-57
2022/05/13 02:38:15;;;;;;;5.97;4.20;;;19.20;99.90;;;;;;5034507;28;20628;-57
2022/05/13 02:43:26;;;;;;;9.75;4.28;;;19.00;99.90;;;;;;5034343;28;20295;-56
2022/05/13 02:45:55;;;;;;;7.13;4.20;;;19.00;99.90;;;;;;5034426;28;20312;-57
2022/05/13 02:48:21;;;;;;;6.85;3.90;;;18.80;99.90;;;;;;5034373;28;20205;-59
2022/05/13 02:50:48;;;;;;;5.78;3.45;;;18.80;99.90;;;;;;5034072;28;20260;-57
2022/05/13 02:53:15;;;;;;;5.03;3.75;;;18.80;99.90;;;;;;5034268;28;20264;-58
2022/05/13 02:55:42;;;;;;;7.88;4.10;;;18.80;99.90;;;;;;5033919;28;20210;-57
2022/05/13 02:58:09;;;;;;;6.53;3.90;;;18.80;99.90;;;;;;5033885;28;20665;-58
2022/05/13 03:00:36;;;;;;;5.78;4.00;;;18.80;99.90;;;;;;5034092;28;20217;-57
2022/05/13 03:03:05;;;;;;;8.75;3.70;;;18.80;99.90;;;;;;5033706;28;20678;-58
2022/05/13 03:05:32;;;;;;;5.65;4.00;;;18.80;99.90;;;;;;5033551;28;20763;-58
2022/05/13 03:08:01;;;;;;;6.10;4.10;;;18.80;99.90;;;;;;5033851;28;20213;-58
2022/05/13 03:10:28;;;;;;;6.03;4.10;;;18.80;99.90;;;;;;5033775;28;20211;-57
2022/05/13 03:12:55;;;;;;;8.00;3.50;;;18.80;99.90;;;;;;5033719;28;20302;-57
2022/05/13 03:15:22;;;;;;;7.25;4.95;;;18.80;99.90;;;;;;5033739;28;20252;-57
2022/05/13 03:17:49;;;;;;;8.52;4.28;;;18.90;99.90;;;;;;5033611;28;20230;-58
2022/05/13 03:20:20;;;;;;;6.93;4.40;;;18.80;99.90;;;;;;5033698;28;20206;-58
2022/05/13 03:22:47;;;;;;;9.10;3.70;;;18.90;99.90;;;;;;5033002;28;20210;-58
2022/05/13 03:25:16;;;;;;;9.73;3.60;;;18.80;99.90;;;;;;5033831;28;20222;-57
2022/05/13 03:27:43;;;;;;;7.38;4.35;;;18.80;99.90;;;;;;5033450;28;20222;-57
2022/05/13 03:30:13;;;;;;;7.80;3.85;;;18.90;99.90;;;;;;5033570;28;20206;-57
2022/05/13 03:32:40;;;;;;;8.27;4.75;;;18.90;99.90;;;;;;5033176;28;20218;-57
2022/05/13 03:35:08;;;;;;;9.98;5.20;;;18.80;99.90;;;;;;5033273;28;20670;-57
2022/05/13 03:37:36;;;;;;;7.78;4.35;;;18.80;99.90;;;;;;5032985;28;20230;-57
2022/05/13 03:40:05;;;;;;;6.70;4.75;;;18.80;99.90;;;;;;5033401;28;20256;-58
2022/05/13 03:42:31;;;;;;;6.68;4.13;;;18.80;99.90;;;;;;5032995;28;20566;-57
2022/05/13 03:44:58;;;;;;;9.25;4.30;;;18.80;99.90;;;;;;5032980;28;20701;-56
2022/05/13 03:47:25;;;;;;;9.73;4.90;;;18.80;99.90;;;;;;5032976;28;20233;-58
2022/05/13 03:49:52;;;;;;;8.00;4.30;;;18.80;99.90;;;;;;5033065;28;20206;-56
2022/05/13 03:52:19;;;;;;;8.40;4.72;;;18.80;99.90;;;;;;5032655;28;20245;-56
2022/05/13 03:54:47;;;;;;;6.10;4.40;;;18.80;99.90;;;;;;5033254;28;20206;-56
2022/05/13 03:57:13;;;;;;;15.68;8.35;;;18.90;99.90;;;;;;5032719;28;20225;-59
2022/05/13 03:59:41;;;;;;;7.47;4.50;;;19.00;99.90;;;;;;5032970;28;20209;-57
2022/05/13 04:02:08;;;;;;;5.28;4.18;;;18.90;99.90;;;;;;5032640;28;20207;-57
2022/05/13 04:08:56;;;;;;;7.30;3.67;;;18.90;99.90;;;;;;5032685;28;20716;-57
2022/05/13 04:10:09;;;;;;;10.75;4.93;;;19.00;99.90;;;;;;5032484;28;20577;-57
2022/05/13 04:18:05;;;;;;;9.02;4.45;;;18.90;99.90;;;;;;5032537;28;20283;-57
2022/05/13 04:20:34;;;;;;;7.55;4.82;;;18.90;99.90;;;;;;5032579;28;20221;-57
2022/05/13 04:23:01;;;;;;;6.35;4.15;;;18.90;99.90;;;;;;5032184;28;20304;-57
2022/05/13 04:25:29;;;;;;;9.85;6.43;;;19.00;99.90;;;;;;5032360;28;20312;-58
2022/05/13 04:27:55;;;;;;;8.10;4.97;;;19.00;99.90;;;;;;5032680;28;20206;-56
2022/05/13 04:30:22;;;;;;;8.25;5.18;;;19.00;99.90;;;;;;5032553;28;20213;-57
2022/05/13 04:32:49;;;;;;;6.75;4.22;;;19.00;99.90;;;;;;5032094;28;20264;-59
2022/05/13 04:35:16;;;;;;;7.10;4.20;;;19.10;99.90;;;;;;5031763;28;20280;-58
2022/05/13 04:37:43;;;;;;;8.73;4.47;;;19.10;99.90;;;;;;5032052;28;20269;-58
2022/05/13 04:40:11;;;;;;;6.72;4.65;;;19.10;99.90;;;;;;5032304;28;20272;-58
2022/05/13 04:42:50;;;;;;;7.13;4.95;;;19.20;99.90;;;;;;5032238;28;20206;-57
2022/05/13 04:45:23;;;;;;;10.10;5.75;;;19.20;99.90;;;;;;5032015;28;20709;-57
2022/05/13 04:50:38;;;;;;;9.80;4.35;;;19.40;99.90;;;;;;5032124;28;20205;-57
2022/05/13 04:53:06;;;;;;;6.97;4.18;;;19.40;99.90;;;;;;5031866;28;20202;-57
2022/05/13 04:55:33;;;;;;;8.02;4.90;;;19.50;99.90;;;;;;5032049;28;20237;-57
2022/05/13 04:58:02;;;;;;;6.80;5.03;;;19.50;99.90;;;;;;5031855;28;20752;-57
2022/05/13 05:00:29;;;;;;;4.65;4.13;;;19.50;99.90;;;;;;5031822;28;20206;-59
2022/05/13 05:02:55;;;;;;;7.32;5.70;;;19.50;99.90;;;;;;5031338;28;20206;-57
2022/05/13 05:05:22;;;;;;;7.63;4.72;;;19.40;99.90;;;;;;5031601;28;20702;-58
2022/05/13 05:07:49;;;;;;;6.45;4.30;;;19.50;99.90;;;;;;5031998;28;20238;-59
2022/05/13 05:10:18;;;;;;;10.40;5.65;;;19.50;99.90;;;;;;5031705;28;20574;-59
2022/05/13 05:12:45;;;;;;;7.28;4.85;;;19.50;99.90;;;;;;5031251;28;20246;-59
2022/05/13 05:15:13;;;;;;;9.80;5.25;;;19.50;99.90;;;;;;5031639;28;20272;-58
2022/05/13 05:17:40;;;;;;;11.00;5.68;;;19.50;99.90;;;;;;5031691;28;20234;-58
2022/05/13 05:20:08;;;;;;;8.85;5.53;;;19.50;99.90;;;;;;5031730;28;20213;-60
2022/05/13 05:22:35;;;;;;;7.45;4.75;;;19.50;99.90;;;;;;5031379;28;20213;-59
2022/05/13 05:25:02;;;;;;;8.60;4.63;;;19.50;99.90;;;;;;5031540;28;20317;-59
2022/05/13 05:27:28;;;;;;;14.77;6.35;;;19.50;99.90;;;;;;5031427;28;20222;-59
2022/05/13 05:29:55;;;;;;;6.68;4.50;;;19.60;99.90;;;;;;5031458;28;20718;-59
2022/05/13 05:32:23;;;;;;;11.30;4.40;;;19.70;99.90;;;;;;5031422;28;20732;-59
2022/05/13 05:34:50;;;;;;;7.32;4.80;;;19.70;99.90;;;;;;5031733;28;20264;-57
2022/05/13 05:37:16;;;;;;;7.68;4.57;;;19.80;99.90;;;;;;5031824;28;20229;-59
2022/05/13 05:39:43;;;;;;;9.13;4.60;;;19.80;99.90;;;;;;5031618;28;20206;-59
2022/05/13 05:42:10;;;;;;;10.05;5.32;;;19.90;99.90;;;;;;5031304;28;20210;-60
2022/05/13 05:44:37;;;;;;;11.85;5.22;;;20.00;99.90;;;;;;5031647;28;20245;-59
2022/05/13 05:47:04;;;;;;;10.63;4.85;;;20.10;99.90;;;;;;5035101;28;20709;-60
2022/05/13 05:49:33;;;;;;;9.35;4.35;;;20.20;99.90;;;;;;5035414;28;20202;-58
2022/05/13 05:51:59;;;;;;;10.63;4.50;;;20.30;99.90;;;;;;5035268;28;20206;-59
2022/05/13 05:57:16;;;;;;;13.88;5.07;;;20.50;99.90;;;;;;5035146;28;20325;-59
2022/05/13 05:59:44;;;;;;;10.02;4.93;;;20.60;99.90;;;;;;5035378;28;20297;-59
2022/05/13 06:02:11;;;;;;;9.35;4.30;;;20.60;99.90;;;;;;5034907;28;20207;-59
2022/05/13 06:04:39;;;;;;;10.50;4.90;;;20.50;99.90;;;;;;5035087;28;20264;-59
2022/05/13 06:07:08;;;;;;;6.95;4.68;;;20.40;99.90;;;;;;5034835;28;20325;-59
2022/05/13 06:09:35;;;;;;;10.90;4.80;;;20.40;99.90;;;;;;5034685;28;20214;-59
2022/05/13 06:12:02;;;;;;;8.10;4.35;;;20.30;99.90;;;;;;5034769;28;20206;-58
2022/05/13 06:14:29;;;;;;;10.00;4.32;;;20.30;99.90;;;;;;5034712;28;20213;-58
2022/05/13 06:16:55;;;;;;;7.10;4.53;;;20.40;99.90;;;;;;5034401;28;20740;-59
2022/05/13 06:19:22;;;;;;;10.32;4.50;;;20.40;99.90;;;;;;5034561;28;20206;-58
2022/05/13 06:21:51;;;;;;;8.93;4.63;;;20.50;99.90;;;;;;5034338;28;20674;-56
2022/05/13 06:24:18;;;;;;;7.35;4.88;;;20.60;99.90;;;;;;5034418;28;20210;-58
2022/05/13 06:26:45;;;;;;;7.80;4.90;;;20.60;99.90;;;;;;5034604;28;20234;-56
2022/05/13 06:29:12;;;;;;;6.35;4.38;;;20.70;99.90;;;;;;5034698;28;20202;-57
2022/05/13 06:31:39;;;;;;;6.80;4.63;;;20.80;99.90;;;;;;5034174;28;20252;-56
2022/05/13 06:34:06;;;;;;;8.70;5.28;;;20.90;99.90;;;;;;5034903;28;20601;-56
2022/05/13 06:36:33;;;;;;;5.43;4.30;;;20.90;99.90;;;;;;5033914;28;20317;-56
2022/05/13 06:39:02;;;;;;;8.10;4.90;;;20.90;99.90;;;;;;5034171;28;20725;-57
2022/05/13 06:41:29;;;;;;;7.28;4.20;;;21.00;99.90;;;;;;5034014;28;20209;-56
2022/05/13 06:43:56;;;;;;;14.00;9.38;;;21.20;99.90;;;;;;5034340;28;20622;-56
2022/05/13 06:46:22;;;;;;;11.13;5.13;;;21.30;99.90;;;;;;5034145;28;20230;-56
2022/05/13 06:48:50;;;;;;;9.27;4.40;;;21.40;99.90;;;;;;5034228;28;20210;-58
2022/05/13 06:51:17;;;;;;;7.90;4.45;;;21.40;99.90;;;;;;5033731;28;20206;-56
2022/05/13 06:53:45;;;;;;;12.38;4.68;;;21.40;99.90;;;;;;5034236;28;20214;-57
2022/05/13 06:56:13;;;;;;;6.63;4.00;;;21.30;99.90;;;;;;5033382;28;20280;-57
2022/05/13 06:58:40;;;;;;;12.32;4.25;;;21.40;99.90;;;;;;5033788;28;20317;-57
2022/05/13 07:01:07;;;;;;;9.25;4.88;;;21.50;99.90;;;;;;5033674;28;20232;-58
2022/05/13 07:03:34;;;;;;;7.72;3.95;;;21.60;99.90;;;;;;5033786;28;20670;-58
2022/05/13 07:06:00;;;;;;;7.15;4.50;;;21.60;99.90;;;;;;5033762;28;20321;-57
2022/05/13 07:08:27;;;;;;;6.47;4.28;;;21.70;99.90;;;;;;5034071;28;20211;-56
2022/05/13 07:10:54;;;;;;;10.55;6.70;;;21.70;99.90;;;;;;5033680;28;20735;-57
2022/05/13 07:13:22;;;;;;;18.33;10.55;;;21.70;99.90;;;;;;5033550;28;20260;-57
2022/05/13 07:15:49;;;;;;;9.95;4.82;;;21.70;99.90;;;;;;5033692;28;20234;-57
2022/05/13 07:18:15;;;;;;;5.15;3.67;;;21.70;99.90;;;;;;5033659;28;20217;-57
2022/05/13 07:20:42;;;;;;;6.13;3.40;;;21.70;99.90;;;;;;5033776;28;20202;-59
2022/05/13 07:23:09;;;;;;;5.82;3.72;;;21.70;99.90;;;;;;5033464;28;20569;-57
2022/05/13 07:25:35;;;;;;;6.57;4.00;;;21.70;99.90;;;;;;5033582;28;20276;-57
2022/05/13 07:28:02;;;;;;;8.80;3.60;;;21.80;99.90;;;;;;5033573;28;20745;-58
2022/05/13 07:30:30;;;;;;;5.57;3.97;;;22.00;99.90;;;;;;5033480;28;20213;-57
2022/05/13 07:32:57;;;;;;;7.05;3.50;;;22.20;99.90;;;;;;5033005;28;20210;-56
2022/05/13 07:35:24;;;;;;;5.63;3.45;;;22.40;99.90;;;;;;5033535;28;20297;-56
2022/05/13 07:37:51;;;;;;;7.45;3.92;;;22.30;99.90;;;;;;5033355;28;20230;-58
2022/05/13 07:43:14;;;;;;;7.68;3.55;;;22.30;99.90;;;;;;4971739;28;20204;-56
2022/05/13 07:45:42;;;;;;;9.60;3.67;;;22.30;99.90;;;;;;5018133;28;20292;-56
2022/05/13 07:48:09;;;;;;;8.85;3.88;;;22.30;99.90;;;;;;5029914;28;20260;-65
2022/05/13 07:50:36;;;;;;;8.38;3.60;;;22.20;99.90;;;;;;5032925;28;20252;-69
2022/05/13 07:53:03;;;;;;;8.98;3.80;;;22.20;99.90;;;;;;5032365;28;20260;-60
2022/05/13 07:55:30;;;;;;;6.47;3.63;;;22.20;99.90;;;;;;5032826;28;20588;-59
2022/05/13 07:57:57;;;;;;;5.75;3.42;;;22.30;99.90;;;;;;5032394;28;20214;-61
2022/05/13 08:00:25;;;;;;;5.20;2.72;;;22.30;99.90;;;;;;5032823;28;20210;-62
2022/05/13 08:02:54;;;;;;;8.75;3.15;;;22.30;99.90;;;;;;5032446;28;20206;-59
2022/05/13 08:05:22;;;;;;;5.78;2.67;;;22.50;99.90;;;;;;5032202;28;20214;-61
2022/05/13 08:07:49;;;;;;;4.43;2.50;;;22.60;99.90;;;;;;5031849;28;20328;-61
2022/05/13 08:10:15;;;;;;;6.97;2.70;;;22.80;99.90;;;;;;5032168;28;20593;-59
2022/05/13 08:12:43;;;;;;;6.22;3.00;;;23.10;99.90;;;;;;5032415;28;20260;-58
2022/05/13 08:15:10;;;;;;;8.90;2.42;;;23.40;99.90;;;;;;5032224;28;20675;-58
2022/05/13 08:17:37;;;;;;;5.60;2.58;;;23.80;99.90;;;;;;5032043;28;20222;-58
2022/05/13 08:20:06;;;;;;;6.80;2.80;;;24.20;99.90;;;;;;5032278;28;20206;-58
2022/05/13 08:22:33;;;;;;;5.90;2.30;;;24.60;99.90;;;;;;5032105;28;20206;-57
2022/05/13 08:25:00;;;;;;;6.88;2.63;;;25.00;99.90;;;;;;5032058;28;20207;-58
2022/05/13 08:27:26;;;;;;;5.78;2.80;;;25.20;99.90;;;;;;5032033;28;20651;-60
2022/05/13 08:29:53;;;;;;;9.13;2.78;;;25.10;99.90;;;;;;5032070;28;20207;-58
2022/05/13 08:32:20;;;;;;;7.20;2.80;;;24.90;99.90;;;;;;5031749;28;20264;-59
2022/05/13 08:34:47;;;;;;;8.65;2.80;;;25.00;99.90;;;;;;5032278;28;20233;-58
2022/05/13 08:37:15;;;;;;;8.40;2.58;;;25.40;99.90;;;;;;5031806;28;20313;-61
2022/05/13 08:39:41;;;;;;;8.30;2.30;;;25.80;99.90;;;;;;5031771;28;20264;-56
2022/05/13 08:42:18;;;;;;;6.97;2.58;;;26.30;99.90;;;;;;5031817;28;20206;-55
2022/05/13 08:44:45;;;;;;;8.35;2.70;;;26.60;99.90;;;;;;5032039;28;20206;-64
2022/05/13 08:47:18;;;;;;;6.65;2.47;;;26.90;99.90;;;;;;5031769;28;20237;-55
2022/05/13 08:49:50;;;;;;;6.18;2.50;;;26.90;98.90;;;;;;5032418;28;20210;-55
2022/05/13 08:55:18;;;;;;;5.25;2.53;;;26.90;98.00;;;;;;5031815;28;20210;-55
2022/05/13 08:57:49;;;;;;;6.20;2.70;;;27.00;97.00;;;;;;5031644;28;20292;-55
2022/05/13 09:00:19;;;;;;;9.73;2.53;;;27.20;97.70;;;;;;5031693;28;20246;-55
2022/05/13 09:02:53;;;;;;;7.80;2.72;;;27.50;96.50;;;;;;5031649;28;20206;-55
2022/05/13 09:05:26;;;;;;;6.55;2.65;;;27.70;95.70;;;;;;5031758;28;20206;-55
2022/05/13 09:07:55;;;;;;;4.95;1.70;;;27.90;91.80;;;;;;5031345;28;20300;-55
2022/05/13 09:10:22;;;;;;;5.03;1.90;;;27.90;86.00;;;;;;5031695;28;20206;-56
2022/05/13 09:12:55;;;;;;;6.05;2.28;;;27.40;87.60;;;;;;5031500;28;20207;-56
2022/05/13 09:15:27;;;;;;;5.38;2.10;;;26.90;88.80;;;;;;5031771;28;20206;-55
2022/05/13 09:18:03;;;;;;;6.07;2.25;;;26.70;90.10;;;;;;5031303;28;20710;-55
2022/05/13 09:20:39;;;;;;;6.40;2.00;;;26.70;91.10;;;;;;5033299;28;20218;-55
2022/05/13 09:23:11;;;;;;;4.85;2.22;;;26.80;91.30;;;;;;5035506;28;20209;-55
2022/05/13 09:25:56;;;;;;;6.95;2.20;;;26.80;91.10;;;;;;5036184;28;20217;-56
2022/05/13 09:28:23;;;;;;;8.18;2.53;;;27.10;91.40;;;;;;5036182;28;20633;-56
2022/05/13 09:30:53;;;;;;;4.45;2.03;;;27.20;90.40;;;;;;5036243;28;20202;-57
2022/05/13 09:33:22;;;;;;;6.05;2.28;;;27.10;90.40;;;;;;5035924;28;20202;-55
2022/05/13 09:35:51;;;;;;;4.80;2.30;;;27.00;89.30;;;;;;5035750;28;20304;-56
2022/05/13 09:38:23;;;;;;;5.15;2.28;;;26.40;90.30;;;;;;5035981;28;20210;-55
2022/05/13 09:40:59;;;;;;;6.55;2.42;;;25.90;91.50;;;;;;5036008;28;20237;-57
2022/05/13 09:43:34;;;;;;;6.80;2.70;;;25.50;91.90;;;;;;5035968;28;20220;-55
2022/05/13 09:46:05;;;;;;;5.68;2.22;;;25.10;92.20;;;;;;5035547;28;20230;-56
2022/05/13 09:48:33;;;;;;;6.88;2.00;;;24.50;93.70;;;;;;5035482;28;20202;-56
2022/05/13 09:51:20;;;;;;;6.32;3.00;;;24.20;92.80;;;;;;5035539;28;20206;-56
2022/05/13 09:54:04;;;;;;;4.45;2.08;;;24.00;92.80;;;;;;5035502;28;20253;-57
2022/05/13 09:56:36;;;;;;;5.95;2.50;;;23.70;92.90;;;;;;5035572;28;20229;-56
2022/05/13 09:59:06;;;;;;;4.55;2.25;;;23.40;93.70;;;;;;5035507;28;20210;-55
2022/05/13 10:01:32;;;;;;;4.95;2.30;;;23.30;94.30;;;;;;5035174;28;20591;-57
2022/05/13 10:04:10;;;;;;;9.40;2.28;;;23.40;94.50;;;;;;5035131;28;20206;-56
2022/05/13 10:06:38;;;;;;;9.48;2.53;;;23.60;94.70;;;;;;5034972;28;20226;-60
2022/05/13 10:14:43;;;;;;;5.90;2.50;;;23.90;93.90;;;;;;5034780;28;20205;-57
2022/05/13 10:17:14;;;;;;;7.43;2.88;;;24.10;94.10;;;;;;5034480;28;20226;-57
2022/05/13 10:19:45;;;;;;;6.07;2.13;;;24.30;93.50;;;;;;5034382;28;20625;-58
2022/05/13 10:22:20;;;;;;;5.57;2.08;;;24.70;93.00;;;;;;5034462;28;20207;-57
2022/05/13 10:24:53;;;;;;;5.97;2.20;;;24.90;92.60;;;;;;5034457;28;20236;-62
2022/05/13 10:27:26;;;;;;;6.22;2.10;;;25.10;92.20;;;;;;5031823;28;20233;-61
2022/05/13 10:29:59;;;;;;;7.22;2.70;;;25.40;92.30;;;;;;5035238;28;20210;-59
2022/05/13 10:32:38;;;;;;;5.07;2.05;;;25.60;91.00;;;;;;5032673;28;20206;-57
2022/05/13 10:35:10;;;;;;;4.82;2.30;;;25.60;91.30;;;;;;5034261;28;20271;-59
2022/05/13 10:37:59;;;;;;;6.45;2.20;;;25.80;90.80;;;;;;5033698;28;20225;-59
2022/05/13 10:40:34;;;;;;;6.65;2.80;;;26.00;91.00;;;;;;5034926;28;20290;-59
2022/05/13 10:43:05;;;;;;;6.55;2.70;;;26.30;90.30;;;;;;5034023;28;20194;-56
2022/05/13 10:45:35;;;;;;;6.43;2.83;;;26.50;89.50;;;;;;5033876;28;20202;-56
2022/05/13 10:48:14;;;;;;;6.82;2.70;;;26.60;87.20;;;;;;5033880;28;20234;-57
2022/05/13 10:50:47;;;;;;;5.45;2.33;;;26.80;88.10;;;;;;5033935;28;20210;-59
2022/05/13 10:53:18;;;;;;;5.45;2.65;;;26.90;87.20;;;;;;5033909;28;20210;-58
2022/05/13 10:55:57;;;;;;;6.47;2.60;;;26.90;87.30;;;;;;5033810;28;20206;-61
2022/05/13 10:58:33;;;;;;;10.75;5.45;;;26.60;86.70;;;;;;5034012;28;20206;-60
2022/05/13 11:01:10;;;;;;;5.35;2.33;;;26.50;89.00;;;;;;5034461;28;20202;-61
2022/05/13 11:03:46;;;;;;;7.78;2.53;;;26.60;90.00;;;;;;5034139;28;20665;-62
2022/05/13 11:06:29;;;;;;;5.30;2.67;;;26.60;88.40;;;;;;5034146;28;20233;-63
2022/05/13 11:09:02;;;;;;;9.20;2.42;;;26.70;87.50;;;;;;5033418;28;20237;-61
2022/05/13 11:11:38;;;;;;;5.25;2.45;;;26.80;87.80;;;;;;5033709;28;20210;-61
2022/05/13 11:14:20;;;;;;;5.43;2.20;;;26.90;86.80;;;;;;5033931;28;20233;-60
2022/05/13 11:16:55;;;;;;;5.55;2.40;;;27.10;85.60;;;;;;5033658;28;20234;-59
2022/05/13 11:19:29;;;;;;;7.20;2.70;;;27.30;85.60;;;;;;5033722;28;20213;-64
2022/05/13 11:22:04;;;;;;;4.88;2.30;;;27.60;83.70;;;;;;5027136;28;20208;-60
2022/05/13 11:27:38;;;;;;;6.20;2.85;;;28.40;80.40;;;;;;5032631;28;20237;-58
2022/05/13 11:30:09;;;;;;;8.90;2.53;;;28.60;80.50;;;;;;5033298;28;20206;-60
2022/05/13 11:32:42;;;;;;;5.75;2.50;;;28.50;78.60;;;;;;5032366;28;20708;-59
2022/05/13 11:35:36;;;;;;;5.32;2.72;;;28.10;78.80;;;;;;5033265;28;20206;-57
2022/05/13 11:38:06;;;;;;;11.27;4.60;;;27.70;80.40;;;;;;5030133;28;20736;-57
2022/05/13 11:40:41;;;;;;;9.18;2.47;;;27.20;82.00;;;;;;5032685;28;20685;-57
2022/05/13 11:43:25;;;;;;;5.63;2.67;;;27.00;83.80;;;;;;5032239;28;20245;-57
2022/05/13 11:46:25;;;;;;;4.65;2.20;;;26.90;84.30;;;;;;5032587;28;20226;-57
2022/05/13 11:48:56;;;;;;;8.27;2.60;;;26.70;83.10;;;;;;5032893;28;20206;-62
2022/05/13 11:51:27;;;;;;;12.32;2.65;;;26.50;84.20;;;;;;5032569;28;20210;-69
2022/05/13 11:54:12;;;;;;;5.28;2.10;;;26.30;86.50;;;;;;5032515;28;20214;-68
2022/05/13 11:56:39;;;;;;;6.32;2.67;;;26.00;85.30;;;;;;5032574;28;20236;-61
2022/05/13 11:59:11;;;;;;;4.35;2.47;;;25.80;85.60;;;;;;5032366;28;20260;-65
2022/05/13 12:02:10;;;;;;;6.13;2.47;;;25.60;86.40;;;;;;5031871;28;20248;-62
2022/05/13 12:05:05;;;;;;;9.35;2.33;;;25.50;87.20;;;;;;5031419;28;20260;-63
2022/05/13 12:07:40;;;;;;;5.15;1.98;;;25.40;86.30;;;;;;5032281;28;20257;-61
2022/05/13 12:10:11;;;;;;;5.85;2.20;;;25.40;87.20;;;;;;5032039;28;20559;-60
2022/05/13 12:12:58;;;;;;;6.85;2.70;;;25.50;87.60;;;;;;5032194;28;20297;-63
2022/05/13 12:15:37;;;;;;;5.65;2.47;;;25.60;86.80;;;;;;5032351;28;20272;-63
2022/05/13 12:18:14;;;;;;;9.05;2.72;;;25.60;85.50;;;;;;5032121;28;20212;-61
2022/05/13 12:20:48;;;;;;;4.43;2.03;;;25.70;85.30;;;;;;5032135;28;20268;-62
2022/05/13 12:23:23;;;;;;;6.97;2.00;;;25.60;84.00;;;;;;5031710;28;20257;-63
2022/05/13 12:25:54;;;;;;;5.45;2.13;;;25.60;84.60;;;;;;5031985;28;20230;-63
2022/05/13 12:28:38;;;;;;;6.05;2.47;;;25.40;85.80;;;;;;5031865;28;20309;-62
2022/05/13 12:31:18;;;;;;;4.70;2.20;;;25.50;87.20;;;;;;5032053;28;20209;-65
2022/05/13 12:37:33;;;;;;;4.07;2.05;;;25.80;86.60;;;;;;5031474;28;20206;-61
2022/05/13 12:39:46;;;;;;;8.77;2.40;;;26.00;83.40;;;;;;5029893;28;20272;-62
2022/05/13 12:42:14;;;;;;;7.30;2.65;;;26.10;83.40;;;;;;5031517;28;20206;-63
2022/05/13 12:44:57;;;;;;;6.32;3.50;;;26.20;83.00;;;;;;5031627;28;20639;-63
2022/05/13 12:47:28;;;;;;;5.78;2.25;;;26.30;82.10;;;;;;5031284;28;20226;-65
2022/05/13 12:50:21;;;;;;;5.65;2.60;;;26.30;82.60;;;;;;5031814;28;20280;-64
2022/05/13 12:52:48;;;;;;;6.97;2.20;;;26.50;82.10;;;;;;5031797;28;20210;-60
2022/05/13 12:55:19;;;;;;;4.72;2.45;;;26.90;81.80;;;;;;5031216;28;20264;-60
2022/05/13 12:57:49;;;;;;;5.10;2.28;;;27.20;80.60;;;;;;5031489;28;20230;-59
2022/05/13 13:00:20;;;;;;;7.38;2.10;;;27.40;79.30;;;;;;5032078;28;20206;-59
2022/05/13 13:02:52;;;;;;;5.95;2.40;;;27.40;78.30;;;;;;5031419;28;20214;-60
2022/05/13 13:05:22;;;;;;;10.05;2.15;;;27.30;79.70;;;;;;5031808;28;20221;-58
2022/05/13 13:07:53;;;;;;;6.88;1.90;;;27.30;78.70;;;;;;5031315;28;20246;-59
2022/05/13 13:10:22;;;;;;;5.25;2.00;;;27.20;78.10;;;;;;5031661;28;20206;-58
2022/05/13 13:12:59;;;;;;;4.07;1.75;;;27.10;79.90;;;;;;5031180;28;20581;-57
2022/05/13 13:15:31;;;;;;;8.65;2.60;;;26.90;78.30;;;;;;5031779;28;20210;-58
2022/05/13 13:18:01;;;;;;;6.68;2.00;;;26.80;79.20;;;;;;5031660;28;20206;-58
2022/05/13 13:20:30;;;;;;;6.30;2.00;;;26.60;80.30;;;;;;5031765;28;20675;-58
2022/05/13 13:23:01;;;;;;;4.80;2.00;;;26.40;81.40;;;;;;5031461;28;20236;-58
2022/05/13 13:25:30;;;;;;;5.38;2.22;;;26.30;82.50;;;;;;5031651;28;20214;-58
2022/05/13 13:27:59;;;;;;;8.07;1.98;;;26.30;79.00;;;;;;5031616;28;20287;-58
2022/05/13 13:30:28;;;;;;;4.32;2.00;;;26.40;78.70;;;;;;5031412;28;20210;-58
2022/05/13 13:32:55;;;;;;;4.25;1.85;;;26.50;77.20;;;;;;5030906;28;20555;-58
2022/05/13 13:35:33;;;;;;;5.75;2.00;;;26.50;76.60;;;;;;5031180;28;20206;-58